createdAt,value
2022-10-18T00:02:20.190Z,100.00
2022-10-18T00:04:47.108Z,100.00
2022-10-18T00:07:13.542Z,100.00
2022-10-18T00:09:40.006Z,100.00
2022-10-18T00:12:06.439Z,100.00
2022-10-18T00:14:32.950Z,100.00
2022-10-18T00:16:59.384Z,100.00
2022-10-18T00:19:28.535Z,100.00
2022-10-18T00:21:55.847Z,100.00
2022-10-18T00:24:22.284Z,100.00
2022-10-18T00:26:48.650Z,100.00
2022-10-18T00:29:16.523Z,100.00
2022-10-18T00:31:44.000Z,100.00
2022-10-18T00:34:14.082Z,100.00
2022-10-18T00:36:41.497Z,100.00
2022-10-18T00:39:12.378Z,100.00
2022-10-18T00:41:38.873Z,100.00
2022-10-18T00:44:12.738Z,100.00
2022-10-18T00:46:41.819Z,100.00
2022-10-18T00:49:17.153Z,100.00
2022-10-18T00:52:08.202Z,100.00
2022-10-18T00:54:38.345Z,100.00
2022-10-18T00:57:06.178Z,100.00
2022-10-18T00:59:33.783Z,100.00
2022-10-18T01:02:00.863Z,100.00
2022-10-18T01:04:27.536Z,100.00
2022-10-18T01:07:12.870Z,100.00
2022-10-18T01:09:39.280Z,100.00
2022-10-18T01:12:49.192Z,100.00
2022-10-18T01:15:18.363Z,100.00
2022-10-18T01:18:09.715Z,100.00
2022-10-18T01:20:55.637Z,100.00
2022-10-18T01:23:54.462Z,100.00
2022-10-18T01:26:46.918Z,100.00
2022-10-18T01:29:31.971Z,100.00
2022-10-18T01:32:04.895Z,100.00
2022-10-18T01:34:35.070Z,100.00
2022-10-18T01:37:05.033Z,100.00
2022-10-18T01:39:34.856Z,100.00
2022-10-18T01:42:05.195Z,100.00
2022-10-18T01:44:33.357Z,100.00
2022-10-18T01:47:00.416Z,100.00
2022-10-18T01:49:27.352Z,100.00
2022-10-18T01:51:53.936Z,100.00
2022-10-18T01:54:30.945Z,100.00
2022-10-18T01:57:28.151Z,100.00
2022-10-18T02:00:03.839Z,100.00
2022-10-18T02:02:51.609Z,100.00
2022-10-18T02:05:32.806Z,100.00
2022-10-18T02:08:23.518Z,100.00
2022-10-18T02:10:58.866Z,100.00
2022-10-18T02:13:30.515Z,100.00
2022-10-18T02:16:03.943Z,100.00
2022-10-18T02:18:55.063Z,100.00
2022-10-18T02:21:23.137Z,100.00
2022-10-18T02:23:50.055Z,100.00
2022-10-18T02:26:16.760Z,100.00
2022-10-18T02:28:43.778Z,100.00
2022-10-18T02:31:26.265Z,100.00
2022-10-18T02:34:06.457Z,100.00
2022-10-18T02:36:59.748Z,100.00
2022-10-18T02:39:38.360Z,100.00
2022-10-18T02:42:06.859Z,100.00
2022-10-18T02:44:37.900Z,100.00
2022-10-18T02:47:06.317Z,100.00
2022-10-18T02:49:32.720Z,100.00
2022-10-18T02:51:59.215Z,100.00
2022-10-18T02:54:25.665Z,100.00
2022-10-18T02:56:52.099Z,100.00
2022-10-18T02:59:18.544Z,100.00
2022-10-18T03:01:45.435Z,100.00
2022-10-18T03:04:12.097Z,100.00
2022-10-18T03:06:38.604Z,100.00
2022-10-18T03:09:06.732Z,100.00
2022-10-18T03:11:33.272Z,100.00
2022-10-18T03:13:59.610Z,100.00
2022-10-18T03:16:26.118Z,100.00
2022-10-18T03:18:52.575Z,100.00
2022-10-18T03:21:19.018Z,100.00
2022-10-18T03:23:45.472Z,100.00
2022-10-18T03:26:14.346Z,100.00
2022-10-18T03:28:40.821Z,100.00
2022-10-18T03:31:07.263Z,100.00
2022-10-18T03:33:33.847Z,100.00
2022-10-18T03:36:00.454Z,100.00
2022-10-18T03:38:27.111Z,100.00
2022-10-18T03:40:53.504Z,100.00
2022-10-18T03:43:20.008Z,100.00
2022-10-18T03:45:46.486Z,100.00
2022-10-18T03:48:13.107Z,100.00
2022-10-18T03:50:39.543Z,100.00
2022-10-18T03:53:06.060Z,100.00
2022-10-18T03:55:32.488Z,100.00
2022-10-18T03:57:58.907Z,100.00
2022-10-18T04:00:25.358Z,100.00
2022-10-18T04:02:54.934Z,100.00
2022-10-18T04:05:24.147Z,100.00
2022-10-18T04:07:50.593Z,100.00
2022-10-18T04:10:18.613Z,100.00
2022-10-18T04:12:45.088Z,100.00
2022-10-18T04:15:11.874Z,100.00
2022-10-18T04:17:38.331Z,100.00
2022-10-18T04:20:05.360Z,100.00
2022-10-18T04:22:31.779Z,100.00
2022-10-18T04:24:58.348Z,100.00
2022-10-18T04:27:24.984Z,100.00
2022-10-18T04:29:51.418Z,100.00
2022-10-18T04:32:17.863Z,100.00
2022-10-18T04:34:44.261Z,100.00
2022-10-18T04:37:10.854Z,100.00
2022-10-18T04:39:37.257Z,100.00
2022-10-18T04:42:03.629Z,100.00
2022-10-18T04:44:30.119Z,100.00
2022-10-18T04:46:56.550Z,100.00
2022-10-18T04:49:22.984Z,100.00
2022-10-18T04:51:49.387Z,100.00
2022-10-18T04:54:16.134Z,100.00
2022-10-18T04:56:42.558Z,100.00
2022-10-18T04:59:08.991Z,100.00
2022-10-18T05:01:35.444Z,100.00
2022-10-18T05:04:01.939Z,100.00
2022-10-18T05:06:28.394Z,100.00
2022-10-18T05:08:54.832Z,100.00
2022-10-18T05:11:21.231Z,100.00
2022-10-18T05:13:50.110Z,100.00
2022-10-18T05:16:17.790Z,100.00
2022-10-18T05:18:44.240Z,100.00
2022-10-18T05:21:12.413Z,100.00
2022-10-18T05:23:39.196Z,100.00
2022-10-18T05:26:06.868Z,100.00
2022-10-18T05:28:39.225Z,100.00
2022-10-18T05:31:07.991Z,100.00
2022-10-18T05:33:35.981Z,100.00
2022-10-18T05:36:02.417Z,100.00
2022-10-18T05:38:31.025Z,100.00
2022-10-18T05:40:58.591Z,100.00
2022-10-18T05:43:28.859Z,100.00
2022-10-18T05:45:55.315Z,100.00
2022-10-18T05:48:21.765Z,100.00
2022-10-18T05:50:48.157Z,100.00
2022-10-18T05:53:35.250Z,100.00
2022-10-18T05:56:02.592Z,100.00
2022-10-18T05:58:29.114Z,100.00
2022-10-18T06:00:59.023Z,100.00
2022-10-18T06:03:27.501Z,100.00
2022-10-18T06:06:02.351Z,100.00
2022-10-18T06:08:29.068Z,100.00
2022-10-18T06:10:55.839Z,100.00
2022-10-18T06:13:22.504Z,100.00
2022-10-18T06:15:49.161Z,100.00
2022-10-18T06:18:16.031Z,100.00
2022-10-18T06:20:42.463Z,100.00
2022-10-18T06:23:08.878Z,100.00
2022-10-18T06:25:35.353Z,100.00
2022-10-18T06:28:06.004Z,100.00
2022-10-18T06:30:34.872Z,100.00
2022-10-18T06:33:01.448Z,100.00
2022-10-18T06:35:28.192Z,100.00
2022-10-18T06:37:54.672Z,100.00
2022-10-18T06:40:21.273Z,100.00
2022-10-18T06:42:59.906Z,100.00
2022-10-18T06:45:33.341Z,100.00
2022-10-18T06:48:00.063Z,100.00
2022-10-18T06:50:26.544Z,100.00
2022-10-18T06:52:52.986Z,100.00
2022-10-18T06:55:19.572Z,100.00
2022-10-18T06:57:46.188Z,100.00
2022-10-18T07:00:13.295Z,100.00
2022-10-18T07:02:41.253Z,100.00
2022-10-18T07:05:08.991Z,100.00
2022-10-18T07:07:35.663Z,100.00
2022-10-18T07:10:02.357Z,100.00
2022-10-18T07:12:28.843Z,100.00
2022-10-18T07:14:55.272Z,100.00
2022-10-18T07:17:21.730Z,100.00
2022-10-18T07:19:48.201Z,100.00
2022-10-18T07:22:14.799Z,100.00
2022-10-18T07:24:41.256Z,100.00
2022-10-18T07:27:07.789Z,100.00
2022-10-18T07:29:34.642Z,100.00
2022-10-18T07:32:01.041Z,100.00
2022-10-18T07:34:28.904Z,100.00
2022-10-18T07:36:55.294Z,100.00
2022-10-18T07:39:22.233Z,100.00
2022-10-18T07:41:48.747Z,100.00
2022-10-18T07:44:15.209Z,100.00
2022-10-18T07:46:41.646Z,100.00
2022-10-18T07:49:08.101Z,100.00
2022-10-18T07:51:36.022Z,100.00
2022-10-18T07:54:02.915Z,100.00
2022-10-18T07:56:29.395Z,100.00
2022-10-18T07:58:56.223Z,100.00
2022-10-18T08:01:24.530Z,100.00
2022-10-18T08:03:52.599Z,100.00
2022-10-18T08:06:20.685Z,100.00
2022-10-18T08:08:47.416Z,100.00
2022-10-18T08:11:19.861Z,100.00
2022-10-18T08:13:46.956Z,100.00
2022-10-18T08:16:16.218Z,100.00
2022-10-18T08:18:42.690Z,100.00
2022-10-18T08:21:11.704Z,100.00
2022-10-18T08:23:38.568Z,100.00
2022-10-18T08:26:16.550Z,100.00
2022-10-18T08:28:53.478Z,100.00
2022-10-18T08:31:25.529Z,100.00
2022-10-18T08:33:51.967Z,100.00
2022-10-18T08:36:19.310Z,100.00
2022-10-18T08:38:45.718Z,100.00
2022-10-18T08:41:15.123Z,100.00
2022-10-18T08:44:06.378Z,100.00
2022-10-18T08:46:36.852Z,100.00
2022-10-18T08:49:04.210Z,100.00
2022-10-18T08:51:45.227Z,100.00
2022-10-18T08:54:31.518Z,100.00
2022-10-18T08:57:04.470Z,100.00
2022-10-18T08:59:39.007Z,100.00
2022-10-18T09:02:28.941Z,100.00
2022-10-18T09:05:19.198Z,100.00
2022-10-18T09:08:00.824Z,100.00
2022-10-18T09:10:35.759Z,100.00
2022-10-18T09:13:36.157Z,100.00
2022-10-18T09:16:17.574Z,100.00
2022-10-18T09:19:02.585Z,100.00
2022-10-18T09:21:51.119Z,100.00
2022-10-18T09:24:39.230Z,100.00
2022-10-18T09:27:17.819Z,100.00
2022-10-18T09:30:10.193Z,100.00
2022-10-18T09:32:51.623Z,100.00
2022-10-18T09:35:22.624Z,100.00
2022-10-18T09:37:53.185Z,99.16
2022-10-18T09:40:25.193Z,98.93
2022-10-18T09:42:54.862Z,95.87
2022-10-18T09:45:41.466Z,98.07
2022-10-18T09:48:17.147Z,95.71
2022-10-18T09:50:47.915Z,95.09
2022-10-18T09:53:25.875Z,94.48
2022-10-18T09:55:57.315Z,95.33
2022-10-18T09:58:26.776Z,94.81
2022-10-18T10:00:53.422Z,96.58
2022-10-18T10:03:19.919Z,97.38
2022-10-18T10:05:46.740Z,96.22
2022-10-18T10:08:13.172Z,96.04
2022-10-18T10:10:45.434Z,96.50
2022-10-18T10:13:23.042Z,95.54
2022-10-18T10:16:03.345Z,96.89
2022-10-18T10:18:33.334Z,96.26
2022-10-18T10:21:05.630Z,96.09
2022-10-18T10:23:45.429Z,95.24
2022-10-18T10:26:33.376Z,95.18
2022-10-18T10:29:00.051Z,93.21
2022-10-18T10:31:36.759Z,91.50
2022-10-18T10:34:05.981Z,92.38
2022-10-18T10:36:34.080Z,92.07
2022-10-18T10:39:16.161Z,91.14
2022-10-18T10:41:42.610Z,89.62
2022-10-18T10:44:21.099Z,89.65
2022-10-18T10:46:50.202Z,88.69
2022-10-18T10:52:26.900Z,89.02
2022-10-18T10:55:05.712Z,89.83
2022-10-18T10:57:38.628Z,89.40
2022-10-18T11:00:05.523Z,89.63
2022-10-18T11:02:34.913Z,91.43
2022-10-18T11:05:24.584Z,89.64
2022-10-18T11:07:53.353Z,89.37
2022-10-18T11:10:24.385Z,89.58
2022-10-18T11:13:23.642Z,91.74
2022-10-18T11:16:00.313Z,88.03
2022-10-18T11:18:34.969Z,87.50
2022-10-18T11:21:07.886Z,87.53
2022-10-18T11:23:37.154Z,89.54
2022-10-18T11:26:11.310Z,88.09
2022-10-18T11:28:49.914Z,88.23
2022-10-18T11:31:29.967Z,87.50
2022-10-18T11:34:09.295Z,86.67
2022-10-18T11:36:54.766Z,87.64
2022-10-18T11:39:55.602Z,87.81
2022-10-18T11:42:46.725Z,86.44
2022-10-18T11:45:39.544Z,86.07
2022-10-18T11:48:30.279Z,86.36
2022-10-18T11:51:08.789Z,88.17
2022-10-18T11:53:48.385Z,84.65
2022-10-18T11:57:03.241Z,85.19
2022-10-18T11:59:50.904Z,84.46
2022-10-18T12:02:38.871Z,83.26
2022-10-18T12:05:24.033Z,82.64
2022-10-18T12:07:58.612Z,79.28
2022-10-18T12:10:44.102Z,80.72
2022-10-18T12:13:34.412Z,80.61
2022-10-18T12:16:04.020Z,81.51
2022-10-18T12:18:31.754Z,82.42
2022-10-18T12:20:59.733Z,80.76
2022-10-18T12:23:38.030Z,80.03
2022-10-18T12:26:07.800Z,80.90
2022-10-18T12:28:51.434Z,80.26
2022-10-18T12:31:39.518Z,80.65
2022-10-18T12:34:28.149Z,79.13
2022-10-18T12:37:26.074Z,79.49
2022-10-18T12:40:09.869Z,79.14
2022-10-18T12:42:44.571Z,76.11
2022-10-18T12:45:13.736Z,76.75
2022-10-18T12:47:40.618Z,76.71
2022-10-18T12:50:26.872Z,76.78
2022-10-18T12:53:02.087Z,75.98
2022-10-18T12:55:38.746Z,77.33
2022-10-18T12:58:22.736Z,77.17
2022-10-18T13:00:49.146Z,77.65
2022-10-18T13:03:18.475Z,79.07
2022-10-18T13:05:53.561Z,77.15
2022-10-18T13:08:27.095Z,75.47
2022-10-18T13:11:11.853Z,75.42
2022-10-18T13:14:08.134Z,75.69
2022-10-18T13:16:58.539Z,74.10
2022-10-18T13:19:32.929Z,73.90
2022-10-18T13:22:37.247Z,74.85
2022-10-18T13:25:24.763Z,75.72
2022-10-18T13:28:00.254Z,77.34
2022-10-18T13:30:39.659Z,74.40
2022-10-18T13:33:17.961Z,75.94
2022-10-18T13:35:55.748Z,74.18
2022-10-18T13:38:42.184Z,72.81
2022-10-18T13:41:10.888Z,76.26
2022-10-18T13:43:52.971Z,74.56
2022-10-18T13:46:20.278Z,79.30
2022-10-18T13:48:53.086Z,76.51
2022-10-18T13:51:40.570Z,77.07
2022-10-18T13:54:18.404Z,75.87
2022-10-18T13:57:17.433Z,79.57
2022-10-18T13:59:59.028Z,80.92
2022-10-18T14:02:56.896Z,79.86
2022-10-18T14:06:06.734Z,79.15
2022-10-18T14:11:38.308Z,77.85
2022-10-18T14:14:34.857Z,77.12
2022-10-18T14:17:25.416Z,77.97
2022-10-18T14:19:58.358Z,76.92
2022-10-18T14:22:31.625Z,76.91
2022-10-18T14:24:59.269Z,78.30
2022-10-18T14:27:27.006Z,78.60
2022-10-18T14:30:08.934Z,80.11
2022-10-18T14:32:36.108Z,80.36
2022-10-18T14:35:32.876Z,78.71
2022-10-18T14:37:52.396Z,78.21
2022-10-18T14:40:27.953Z,80.08
2022-10-18T14:42:54.387Z,78.43
2022-10-18T14:45:21.975Z,80.21
2022-10-18T14:47:48.832Z,81.35
2022-10-18T14:50:25.442Z,82.39
2022-10-18T14:52:53.884Z,83.05
2022-10-18T14:55:24.819Z,82.10
2022-10-18T14:57:51.466Z,82.94
2022-10-18T15:00:25.897Z,83.08
2022-10-18T15:02:52.875Z,83.36
2022-10-18T15:05:22.882Z,84.74
2022-10-18T15:07:51.615Z,84.83
2022-10-18T15:10:23.808Z,84.88
2022-10-18T15:13:08.631Z,84.00
2022-10-18T15:15:36.467Z,84.95
2022-10-18T15:18:05.254Z,84.71
2022-10-18T15:20:35.178Z,84.72
2022-10-18T15:23:25.849Z,83.80
2022-10-18T15:26:04.596Z,84.72
2022-10-18T15:28:36.060Z,84.78
2022-10-18T15:31:02.956Z,85.39
2022-10-18T15:33:34.484Z,85.70
2022-10-18T15:36:12.379Z,86.17
2022-10-18T15:38:38.985Z,87.32
2022-10-18T15:41:41.187Z,87.86
2022-10-18T15:44:31.648Z,88.14
2022-10-18T15:47:13.253Z,87.38
2022-10-18T15:49:46.154Z,86.73
2022-10-18T15:52:35.230Z,86.67
2022-10-18T15:55:22.963Z,87.56
2022-10-18T15:57:49.566Z,87.61
2022-10-18T16:00:20.029Z,88.46
2022-10-18T16:02:46.558Z,88.49
2022-10-18T16:05:20.668Z,88.91
2022-10-18T16:07:51.739Z,88.91
2022-10-18T16:10:18.313Z,88.95
2022-10-18T16:12:44.736Z,88.42
2022-10-18T16:15:11.207Z,88.59
2022-10-18T16:17:38.264Z,89.33
2022-10-18T16:20:05.220Z,89.46
2022-10-18T16:22:34.751Z,89.71
2022-10-18T16:25:03.594Z,89.84
2022-10-18T16:27:30.153Z,90.08
2022-10-18T16:29:56.648Z,90.48
2022-10-18T16:32:23.021Z,90.94
2022-10-18T16:34:49.476Z,90.78
2022-10-18T16:37:15.930Z,90.88
2022-10-18T16:39:42.372Z,91.30
2022-10-18T16:42:08.761Z,90.67
2022-10-18T16:44:35.240Z,91.90
2022-10-18T16:47:01.792Z,91.85
2022-10-18T16:49:28.434Z,91.84
2022-10-18T16:51:55.063Z,92.68
2022-10-18T16:54:21.616Z,92.74
2022-10-18T16:56:49.930Z,93.31
2022-10-18T16:59:24.075Z,93.80
2022-10-18T17:01:50.553Z,94.03
2022-10-18T17:04:16.985Z,93.36
2022-10-18T17:06:43.615Z,94.16
2022-10-18T17:09:13.599Z,94.23
2022-10-18T17:11:40.021Z,94.67
2022-10-18T17:14:06.454Z,95.01
2022-10-18T17:16:34.946Z,94.69
2022-10-18T17:19:04.245Z,95.31
2022-10-18T17:21:33.338Z,96.08
2022-10-18T17:24:02.950Z,95.98
2022-10-18T17:26:30.429Z,96.08
2022-10-18T17:29:02.822Z,96.35
2022-10-18T17:31:30.556Z,96.18
2022-10-18T17:33:58.568Z,96.43
2022-10-18T17:36:25.319Z,97.22
2022-10-18T17:38:53.047Z,96.42
2022-10-18T17:41:19.556Z,97.16
2022-10-18T17:43:47.821Z,97.57
2022-10-18T17:46:14.574Z,97.13
2022-10-18T17:48:41.840Z,96.87
2022-10-18T17:51:10.216Z,96.62
2022-10-18T17:53:36.947Z,97.29
2022-10-18T17:56:05.022Z,97.50
2022-10-18T17:58:31.673Z,97.04
2022-10-18T18:01:07.484Z,96.90
2022-10-18T18:03:34.083Z,97.31
2022-10-18T18:06:00.593Z,97.29
2022-10-18T18:08:27.064Z,98.24
2022-10-18T18:10:56.574Z,97.90
2022-10-18T18:13:23.020Z,96.92
2022-10-18T18:15:49.575Z,96.93
2022-10-18T18:18:16.044Z,97.08
2022-10-18T18:20:51.372Z,96.71
2022-10-18T18:23:19.779Z,97.20
2022-10-18T18:25:55.994Z,97.46
2022-10-18T18:28:22.485Z,99.07
2022-10-18T18:30:48.967Z,99.02
2022-10-18T18:33:15.364Z,98.01
2022-10-18T18:35:41.762Z,98.85
2022-10-18T18:38:09.085Z,97.87
2022-10-18T18:40:35.601Z,98.21
2022-10-18T18:43:12.332Z,99.33
2022-10-18T18:45:50.944Z,99.90
2022-10-18T18:48:19.746Z,99.21
2022-10-18T18:50:51.168Z,99.55
2022-10-18T18:53:18.335Z,99.40
2022-10-18T18:55:45.151Z,98.92
2022-10-18T18:58:12.164Z,98.88
2022-10-18T19:00:43.417Z,98.39
2022-10-18T19:03:11.993Z,98.05
2022-10-18T19:05:38.490Z,98.22
2022-10-18T19:08:05.388Z,98.45
2022-10-18T19:10:31.856Z,98.15
2022-10-18T19:12:58.467Z,97.79
2022-10-18T19:15:24.983Z,97.91
2022-10-18T19:17:51.453Z,97.87
2022-10-18T19:20:18.141Z,97.98
2022-10-18T19:22:45.577Z,98.44
2022-10-18T19:25:12.282Z,97.70
2022-10-18T19:27:38.868Z,97.76
2022-10-18T19:30:09.016Z,97.53
2022-10-18T19:32:35.406Z,98.16
2022-10-18T19:35:01.893Z,98.15
2022-10-18T19:37:28.362Z,97.62
2022-10-18T19:39:54.858Z,97.72
2022-10-18T19:42:24.202Z,97.30
2022-10-18T19:44:52.739Z,97.00
2022-10-18T19:47:20.450Z,96.93
2022-10-18T19:49:47.965Z,96.45
2022-10-18T19:52:14.581Z,96.44
2022-10-18T19:54:41.406Z,95.98
2022-10-18T19:57:08.641Z,96.18
2022-10-18T19:59:36.035Z,96.10
2022-10-18T20:02:04.684Z,96.41
2022-10-18T20:04:34.528Z,96.44
2022-10-18T20:07:02.673Z,96.51
2022-10-18T20:09:29.221Z,96.59
2022-10-18T20:11:55.747Z,96.88
2022-10-18T20:14:22.242Z,97.53
2022-10-18T20:16:48.676Z,97.61
2022-10-18T20:19:15.148Z,97.20
2022-10-18T20:21:41.638Z,97.18
2022-10-18T20:24:09.409Z,97.59
2022-10-18T20:26:36.456Z,97.19
2022-10-18T20:29:04.284Z,97.45
2022-10-18T20:31:35.490Z,97.43
2022-10-18T20:34:03.643Z,97.18
2022-10-18T20:36:32.320Z,96.85
2022-10-18T20:38:59.261Z,96.96
2022-10-18T20:41:27.126Z,96.52
2022-10-18T20:43:55.337Z,96.33
2022-10-18T20:46:22.556Z,96.13
2022-10-18T20:48:50.631Z,96.74
2022-10-18T20:51:17.827Z,96.63
2022-10-18T20:53:45.524Z,96.61
2022-10-18T20:56:14.563Z,96.61
2022-10-18T20:58:42.809Z,96.06
2022-10-18T21:01:12.226Z,96.80
2022-10-18T21:03:46.037Z,96.63
2022-10-18T21:06:17.671Z,96.60
2022-10-18T21:08:44.914Z,96.48
2022-10-18T21:11:12.305Z,96.52
2022-10-18T21:13:40.838Z,96.76
2022-10-18T21:16:07.688Z,96.67
2022-10-18T21:18:36.424Z,96.82
2022-10-18T21:23:45.224Z,96.32
2022-10-18T21:26:23.069Z,96.52
2022-10-18T21:28:58.556Z,98.14
2022-10-18T21:31:27.098Z,98.11
2022-10-18T21:33:56.629Z,98.44
2022-10-18T21:36:23.646Z,100.00
2022-10-18T21:38:50.725Z,100.00
2022-10-18T21:41:19.280Z,100.00
2022-10-18T21:43:47.970Z,100.00
2022-10-18T21:46:15.930Z,100.00
2022-10-18T21:48:50.617Z,100.00
2022-10-18T21:51:19.665Z,100.00
2022-10-18T21:53:48.439Z,100.00
2022-10-18T21:56:18.431Z,100.00
2022-10-18T21:58:45.877Z,100.00
2022-10-18T22:01:14.608Z,99.09
2022-10-18T22:03:41.636Z,98.76
2022-10-18T22:06:13.757Z,98.08
2022-10-18T22:08:45.631Z,98.35
2022-10-18T22:11:13.500Z,98.96
2022-10-18T22:13:40.899Z,99.07
2022-10-18T22:16:08.113Z,98.86
2022-10-18T22:18:35.302Z,98.82
2022-10-18T22:21:05.167Z,98.61
2022-10-18T22:23:36.925Z,98.14
2022-10-18T22:26:11.242Z,97.92
2022-10-18T22:28:39.034Z,97.11
2022-10-18T22:31:06.338Z,97.45
2022-10-18T22:33:32.809Z,97.29
2022-10-18T22:35:59.265Z,96.86
2022-10-18T22:38:25.766Z,97.06
2022-10-18T22:40:52.230Z,96.94
2022-10-18T22:43:18.754Z,96.93
2022-10-18T22:45:45.156Z,96.99
2022-10-18T22:48:11.607Z,96.75
2022-10-18T22:50:38.007Z,96.98
2022-10-18T22:53:04.403Z,96.84
2022-10-18T22:55:30.832Z,97.04
2022-10-18T22:57:57.230Z,96.79
2022-10-18T23:00:23.823Z,97.01
2022-10-18T23:02:50.323Z,97.20
2022-10-18T23:05:16.856Z,96.92
2022-10-18T23:07:49.100Z,97.14
2022-10-18T23:10:15.685Z,97.20
2022-10-18T23:12:42.390Z,97.95
2022-10-18T23:15:09.332Z,97.47
2022-10-18T23:17:36.156Z,97.95
2022-10-18T23:20:03.352Z,97.44
2022-10-18T23:22:29.856Z,97.71
2022-10-18T23:24:56.324Z,97.30
2022-10-18T23:27:22.952Z,97.87
2022-10-18T23:29:49.366Z,97.06
2022-10-18T23:32:16.225Z,97.48
2022-10-18T23:34:42.666Z,97.65
2022-10-18T23:37:09.068Z,97.33
2022-10-18T23:39:35.480Z,97.24
2022-10-18T23:42:01.868Z,96.72
2022-10-18T23:44:28.288Z,97.00
2022-10-18T23:46:54.812Z,97.24
2022-10-18T23:49:21.199Z,97.27
2022-10-18T23:51:47.591Z,97.49
2022-10-18T23:54:14.072Z,97.82
2022-10-18T23:56:40.487Z,97.25
2022-10-18T23:59:06.906Z,97.38
